sensor_id;sensor_type;location;lat;lon;timestamp;P1;durP1;ratioP1;P2;durP2;ratioP2
68843;SDS011;55850;51.244;6.824;2022-08-01T00:01:00;6.07;;;2.87;;
68843;SDS011;55850;51.244;6.824;2022-08-01T00:06:08;3.83;;;2.67;;
68843;SDS011;55850;51.244;6.824;2022-08-01T00:11:14;6.68;;;3.05;;
68843;SDS011;55850;51.244;6.824;2022-08-01T00:16:19;4.75;;;2.92;;
68843;SDS011;55850;51.244;6.824;2022-08-01T00:21:27;3.60;;;2.73;;
68843;SDS011;55850;51.244;6.824;2022-08-01T00:26:33;3.58;;;3.05;;
68843;SDS011;55850;51.244;6.824;2022-08-01T00:31:40;6.93;;;3.60;;
68843;SDS011;55850;51.244;6.824;2022-08-01T00:36:49;4.30;;;3.13;;
68843;SDS011;55850;51.244;6.824;2022-08-01T00:41:54;7.93;;;3.10;;
68843;SDS011;55850;51.244;6.824;2022-08-01T00:47:04;3.83;;;3.22;;
68843;SDS011;55850;51.244;6.824;2022-08-01T00:52:12;9.30;;;3.73;;
68843;SDS011;55850;51.244;6.824;2022-08-01T00:57:17;5.17;;;3.30;;
68843;SDS011;55850;51.244;6.824;2022-08-01T01:02:43;5.13;;;3.35;;
68843;SDS011;55850;51.244;6.824;2022-08-01T01:07:53;6.45;;;3.17;;
68843;SDS011;55850;51.244;6.824;2022-08-01T01:13:05;5.37;;;3.50;;
68843;SDS011;55850;51.244;6.824;2022-08-01T01:18:14;4.63;;;2.72;;
68843;SDS011;55850;51.244;6.824;2022-08-01T01:23:32;7.22;;;3.30;;
68843;SDS011;55850;51.244;6.824;2022-08-01T01:28:58;8.20;;;3.60;;
68843;SDS011;55850;51.244;6.824;2022-08-01T01:34:06;6.68;;;2.85;;
68843;SDS011;55850;51.244;6.824;2022-08-01T01:39:14;4.07;;;2.95;;
68843;SDS011;55850;51.244;6.824;2022-08-01T01:44:23;3.33;;;3.00;;
68843;SDS011;55850;51.244;6.824;2022-08-01T01:49:32;4.83;;;2.83;;
68843;SDS011;55850;51.244;6.824;2022-08-01T01:54:42;4.97;;;3.33;;
68843;SDS011;55850;51.244;6.824;2022-08-01T01:59:54;5.93;;;3.25;;
68843;SDS011;55850;51.244;6.824;2022-08-01T02:05:01;6.00;;;3.37;;
68843;SDS011;55850;51.244;6.824;2022-08-01T02:10:09;6.75;;;3.70;;
68843;SDS011;55850;51.244;6.824;2022-08-01T02:15:19;9.90;;;4.00;;
68843;SDS011;55850;51.244;6.824;2022-08-01T02:20:25;10.37;;;4.20;;
68843;SDS011;55850;51.244;6.824;2022-08-01T02:25:34;6.22;;;4.10;;
68843;SDS011;55850;51.244;6.824;2022-08-01T02:31:07;6.70;;;3.92;;
68843;SDS011;55850;51.244;6.824;2022-08-01T02:36:16;7.07;;;4.40;;
68843;SDS011;55850;51.244;6.824;2022-08-01T02:41:33;11.37;;;4.97;;
68843;SDS011;55850;51.244;6.824;2022-08-01T02:46:47;10.35;;;4.68;;
68843;SDS011;55850;51.244;6.824;2022-08-01T02:51:57;9.00;;;5.53;;
68843;SDS011;55850;51.244;6.824;2022-08-01T02:57:04;9.67;;;5.27;;
68843;SDS011;55850;51.244;6.824;2022-08-01T03:02:17;9.90;;;4.72;;
68843;SDS011;55850;51.244;6.824;2022-08-01T03:07:23;9.88;;;5.30;;
68843;SDS011;55850;51.244;6.824;2022-08-01T03:12:39;10.77;;;5.83;;
68843;SDS011;55850;51.244;6.824;2022-08-01T03:17:50;9.77;;;5.28;;
68843;SDS011;55850;51.244;6.824;2022-08-01T03:22:57;8.75;;;5.40;;
68843;SDS011;55850;51.244;6.824;2022-08-01T03:28:06;7.53;;;5.10;;
68843;SDS011;55850;51.244;6.824;2022-08-01T03:33:17;11.00;;;6.03;;
68843;SDS011;55850;51.244;6.824;2022-08-01T03:38:24;13.15;;;6.65;;
68843;SDS011;55850;51.244;6.824;2022-08-01T03:43:32;11.25;;;6.07;;
68843;SDS011;55850;51.244;6.824;2022-08-01T03:48:47;14.07;;;7.47;;
68843;SDS011;55850;51.244;6.824;2022-08-01T03:53:53;15.95;;;7.32;;
68843;SDS011;55850;51.244;6.824;2022-08-01T03:59:00;17.08;;;7.30;;
68843;SDS011;55850;51.244;6.824;2022-08-01T04:04:10;14.53;;;7.83;;
68843;SDS011;55850;51.244;6.824;2022-08-01T04:09:16;11.80;;;6.68;;
68843;SDS011;55850;51.244;6.824;2022-08-01T04:14:22;11.73;;;7.38;;
68843;SDS011;55850;51.244;6.824;2022-08-01T04:19:30;18.03;;;7.53;;
68843;SDS011;55850;51.244;6.824;2022-08-01T04:24:36;12.03;;;7.90;;
68843;SDS011;55850;51.244;6.824;2022-08-01T04:29:42;15.55;;;9.07;;
68843;SDS011;55850;51.244;6.824;2022-08-01T04:34:50;14.55;;;8.55;;
68843;SDS011;55850;51.244;6.824;2022-08-01T04:39:57;15.03;;;8.40;;
68843;SDS011;55850;51.244;6.824;2022-08-01T04:45:05;12.55;;;8.32;;
68843;SDS011;55850;51.244;6.824;2022-08-01T04:50:15;13.00;;;8.73;;
68843;SDS011;55850;51.244;6.824;2022-08-01T04:55:26;13.93;;;8.07;;
68843;SDS011;55850;51.244;6.824;2022-08-01T05:00:33;12.77;;;7.93;;
68843;SDS011;55850;51.244;6.824;2022-08-01T05:05:41;13.30;;;8.23;;
68843;SDS011;55850;51.244;6.824;2022-08-01T05:10:46;11.90;;;7.83;;
68843;SDS011;55850;51.244;6.824;2022-08-01T05:15:51;11.70;;;8.13;;
68843;SDS011;55850;51.244;6.824;2022-08-01T05:21:00;13.20;;;8.43;;
68843;SDS011;55850;51.244;6.824;2022-08-01T05:26:05;14.15;;;8.77;;
68843;SDS011;55850;51.244;6.824;2022-08-01T05:31:11;14.07;;;8.30;;
68843;SDS011;55850;51.244;6.824;2022-08-01T05:36:19;14.75;;;9.10;;
68843;SDS011;55850;51.244;6.824;2022-08-01T05:41:24;13.43;;;8.32;;
68843;SDS011;55850;51.244;6.824;2022-08-01T05:46:29;15.63;;;8.67;;
68843;SDS011;55850;51.244;6.824;2022-08-01T05:51:38;12.15;;;8.27;;
68843;SDS011;55850;51.244;6.824;2022-08-01T05:56:43;13.52;;;8.55;;
68843;SDS011;55850;51.244;6.824;2022-08-01T06:01:49;11.43;;;7.23;;
68843;SDS011;55850;51.244;6.824;2022-08-01T06:06:57;15.33;;;9.57;;
68843;SDS011;55850;51.244;6.824;2022-08-01T06:12:03;10.98;;;6.93;;
68843;SDS011;55850;51.244;6.824;2022-08-01T06:17:10;11.13;;;6.28;;
68843;SDS011;55850;51.244;6.824;2022-08-01T06:22:20;17.57;;;9.40;;
68843;SDS011;55850;51.244;6.824;2022-08-01T06:27:26;14.27;;;8.07;;
68843;SDS011;55850;51.244;6.824;2022-08-01T06:32:31;11.73;;;7.18;;
68843;SDS011;55850;51.244;6.824;2022-08-01T06:37:39;11.80;;;7.90;;
68843;SDS011;55850;51.244;6.824;2022-08-01T06:42:46;12.25;;;8.15;;
68843;SDS011;55850;51.244;6.824;2022-08-01T06:47:52;10.73;;;7.30;;
68843;SDS011;55850;51.244;6.824;2022-08-01T06:53:00;9.97;;;6.53;;
68843;SDS011;55850;51.244;6.824;2022-08-01T06:58:05;8.93;;;5.60;;
68843;SDS011;55850;51.244;6.824;2022-08-01T07:03:11;11.07;;;5.35;;
68843;SDS011;55850;51.244;6.824;2022-08-01T07:08:19;9.25;;;4.82;;
68843;SDS011;55850;51.244;6.824;2022-08-01T07:13:25;8.30;;;4.60;;
68843;SDS011;55850;51.244;6.824;2022-08-01T07:18:46;6.75;;;3.90;;
68843;SDS011;55850;51.244;6.824;2022-08-01T07:23:54;5.03;;;2.85;;
68843;SDS011;55850;51.244;6.824;2022-08-01T07:29:01;5.20;;;3.20;;
68843;SDS011;55850;51.244;6.824;2022-08-01T07:34:06;6.65;;;3.17;;
68843;SDS011;55850;51.244;6.824;2022-08-01T07:39:14;4.38;;;2.83;;
68843;SDS011;55850;51.244;6.824;2022-08-01T07:44:22;4.77;;;2.40;;
68843;SDS011;55850;51.244;6.824;2022-08-01T07:49:30;3.17;;;2.47;;
68843;SDS011;55850;51.244;6.824;2022-08-01T07:54:43;3.55;;;2.28;;
68843;SDS011;55850;51.244;6.824;2022-08-01T07:59:53;3.50;;;2.17;;
68843;SDS011;55850;51.244;6.824;2022-08-01T08:04:58;2.90;;;1.87;;
68843;SDS011;55850;51.244;6.824;2022-08-01T08:10:07;4.78;;;2.20;;
68843;SDS011;55850;51.244;6.824;2022-08-01T08:15:14;4.35;;;3.00;;
68843;SDS011;55850;51.244;6.824;2022-08-01T08:20:19;3.67;;;2.57;;
68843;SDS011;55850;51.244;6.824;2022-08-01T08:25:29;4.70;;;3.10;;
68843;SDS011;55850;51.244;6.824;2022-08-01T08:30:35;5.50;;;3.00;;
68843;SDS011;55850;51.244;6.824;2022-08-01T08:35:41;3.00;;;2.00;;
68843;SDS011;55850;51.244;6.824;2022-08-01T08:40:57;2.73;;;1.90;;
68843;SDS011;55850;51.244;6.824;2022-08-01T08:46:04;2.78;;;2.00;;
68843;SDS011;55850;51.244;6.824;2022-08-01T08:51:12;3.35;;;2.38;;
68843;SDS011;55850;51.244;6.824;2022-08-01T08:56:21;4.07;;;2.70;;
68843;SDS011;55850;51.244;6.824;2022-08-01T09:01:31;4.75;;;2.90;;
68843;SDS011;55850;51.244;6.824;2022-08-01T09:06:37;4.85;;;2.97;;
68843;SDS011;55850;51.244;6.824;2022-08-01T09:11:47;4.20;;;2.50;;
68843;SDS011;55850;51.244;6.824;2022-08-01T09:17:06;4.75;;;2.80;;
68843;SDS011;55850;51.244;6.824;2022-08-01T09:22:15;5.10;;;2.33;;
68843;SDS011;55850;51.244;6.824;2022-08-01T09:27:27;2.97;;;2.30;;
68843;SDS011;55850;51.244;6.824;2022-08-01T09:32:33;3.97;;;2.70;;
68843;SDS011;55850;51.244;6.824;2022-08-01T09:37:39;4.03;;;2.72;;
68843;SDS011;55850;51.244;6.824;2022-08-01T09:42:51;4.60;;;3.08;;
68843;SDS011;55850;51.244;6.824;2022-08-01T09:48:16;4.47;;;2.60;;
68843;SDS011;55850;51.244;6.824;2022-08-01T09:53:39;2.97;;;2.20;;
68843;SDS011;55850;51.244;6.824;2022-08-01T09:58:57;3.15;;;2.30;;
68843;SDS011;55850;51.244;6.824;2022-08-01T10:04:07;5.10;;;2.60;;
68843;SDS011;55850;51.244;6.824;2022-08-01T10:09:25;3.13;;;2.13;;
68843;SDS011;55850;51.244;6.824;2022-08-01T10:14:45;2.53;;;2.10;;
68843;SDS011;55850;51.244;6.824;2022-08-01T10:19:51;3.27;;;2.30;;
68843;SDS011;55850;51.244;6.824;2022-08-01T10:25:00;5.10;;;2.13;;
68843;SDS011;55850;51.244;6.824;2022-08-01T10:30:11;4.78;;;2.35;;
68843;SDS011;55850;51.244;6.824;2022-08-01T10:35:24;3.00;;;2.05;;
68843;SDS011;55850;51.244;6.824;2022-08-01T10:40:48;2.63;;;1.83;;
68843;SDS011;55850;51.244;6.824;2022-08-01T10:45:58;2.75;;;2.05;;
68843;SDS011;55850;51.244;6.824;2022-08-01T10:51:04;2.28;;;1.90;;
68843;SDS011;55850;51.244;6.824;2022-08-01T10:56:20;4.93;;;1.87;;
68843;SDS011;55850;51.244;6.824;2022-08-01T11:01:31;2.78;;;1.50;;
68843;SDS011;55850;51.244;6.824;2022-08-01T11:12:08;2.30;;;1.30;;
68843;SDS011;55850;51.244;6.824;2022-08-01T11:17:32;1.40;;;1.30;;
68843;SDS011;55850;51.244;6.824;2022-08-01T11:28:28;1.52;;;1.30;;
68843;SDS011;55850;51.244;6.824;2022-08-01T11:39:13;1.52;;;1.30;;
68843;SDS011;55850;51.244;6.824;2022-08-01T11:44:21;2.90;;;1.30;;
68843;SDS011;55850;51.244;6.824;2022-08-01T11:49:42;1.63;;;1.30;;
68843;SDS011;55850;51.244;6.824;2022-08-01T11:54:57;2.20;;;1.50;;
68843;SDS011;55850;51.244;6.824;2022-08-01T12:00:12;2.60;;;1.30;;
68843;SDS011;55850;51.244;6.824;2022-08-01T12:05:22;3.17;;;1.77;;
68843;SDS011;55850;51.244;6.824;2022-08-01T12:10:29;2.97;;;2.20;;
68843;SDS011;55850;51.244;6.824;2022-08-01T12:15:51;2.25;;;1.65;;
68843;SDS011;55850;51.244;6.824;2022-08-01T12:21:02;4.78;;;1.80;;
68843;SDS011;55850;51.244;6.824;2022-08-01T12:26:08;2.77;;;1.70;;
68843;SDS011;55850;51.244;6.824;2022-08-01T12:31:33;2.85;;;1.60;;
68843;SDS011;55850;51.244;6.824;2022-08-01T12:36:41;2.05;;;1.48;;
68843;SDS011;55850;51.244;6.824;2022-08-01T12:41:47;4.03;;;1.40;;
68843;SDS011;55850;51.244;6.824;2022-08-01T12:46:52;1.65;;;1.30;;
68843;SDS011;55850;51.244;6.824;2022-08-01T12:52:00;1.52;;;1.20;;
68843;SDS011;55850;51.244;6.824;2022-08-01T12:57:20;1.40;;;1.30;;
68843;SDS011;55850;51.244;6.824;2022-08-01T13:02:31;2.07;;;1.40;;
68843;SDS011;55850;51.244;6.824;2022-08-01T13:07:41;3.38;;;1.67;;
68843;SDS011;55850;51.244;6.824;2022-08-01T13:12:50;2.53;;;1.50;;
68843;SDS011;55850;51.244;6.824;2022-08-01T13:17:58;1.90;;;1.30;;
68843;SDS011;55850;51.244;6.824;2022-08-01T13:23:14;2.13;;;1.23;;
68843;SDS011;55850;51.244;6.824;2022-08-01T13:28:41;3.65;;;1.30;;
68843;SDS011;55850;51.244;6.824;2022-08-01T13:33:47;2.37;;;1.30;;
68843;SDS011;55850;51.244;6.824;2022-08-01T13:39:04;1.48;;;1.00;;
68843;SDS011;55850;51.244;6.824;2022-08-01T13:44:22;1.80;;;1.38;;
68843;SDS011;55850;51.244;6.824;2022-08-01T13:49:27;1.80;;;1.40;;
68843;SDS011;55850;51.244;6.824;2022-08-01T13:54:41;2.47;;;1.60;;
68843;SDS011;55850;51.244;6.824;2022-08-01T13:59:47;2.80;;;2.35;;
68843;SDS011;55850;51.244;6.824;2022-08-01T14:04:54;2.47;;;2.10;;
68843;SDS011;55850;51.244;6.824;2022-08-01T14:10:03;2.90;;;1.90;;
68843;SDS011;55850;51.244;6.824;2022-08-01T14:15:21;2.33;;;1.60;;
68843;SDS011;55850;51.244;6.824;2022-08-01T14:20:40;2.40;;;1.90;;
68843;SDS011;55850;51.244;6.824;2022-08-01T14:25:49;4.57;;;2.17;;
68843;SDS011;55850;51.244;6.824;2022-08-01T14:31:06;2.10;;;1.90;;
68843;SDS011;55850;51.244;6.824;2022-08-01T14:36:12;2.85;;;1.88;;
68843;SDS011;55850;51.244;6.824;2022-08-01T14:41:35;3.27;;;2.03;;
68843;SDS011;55850;51.244;6.824;2022-08-01T14:46:42;2.30;;;1.70;;
68843;SDS011;55850;51.244;6.824;2022-08-01T14:51:59;3.58;;;2.17;;
68843;SDS011;55850;51.244;6.824;2022-08-01T14:57:08;2.40;;;2.20;;
68843;SDS011;55850;51.244;6.824;2022-08-01T15:02:13;2.83;;;2.20;;
68843;SDS011;55850;51.244;6.824;2022-08-01T15:07:20;3.85;;;2.10;;
68843;SDS011;55850;51.244;6.824;2022-08-01T15:12:28;4.03;;;2.55;;
68843;SDS011;55850;51.244;6.824;2022-08-01T15:17:51;3.43;;;2.40;;
68843;SDS011;55850;51.244;6.824;2022-08-01T15:22:56;2.58;;;2.17;;
68843;SDS011;55850;51.244;6.824;2022-08-01T15:28:05;3.53;;;2.00;;
68843;SDS011;55850;51.244;6.824;2022-08-01T15:33:10;2.97;;;2.50;;
68843;SDS011;55850;51.244;6.824;2022-08-01T15:38:16;3.33;;;2.70;;
68843;SDS011;55850;51.244;6.824;2022-08-01T15:43:24;4.32;;;2.25;;
68843;SDS011;55850;51.244;6.824;2022-08-01T15:48:29;3.65;;;2.33;;
68843;SDS011;55850;51.244;6.824;2022-08-01T15:53:40;5.23;;;2.00;;
68843;SDS011;55850;51.244;6.824;2022-08-01T15:58:52;4.13;;;2.20;;
68843;SDS011;55850;51.244;6.824;2022-08-01T16:03:58;4.18;;;1.73;;
68843;SDS011;55850;51.244;6.824;2022-08-01T16:09:06;3.17;;;2.40;;
68843;SDS011;55850;51.244;6.824;2022-08-01T16:14:22;4.18;;;1.70;;
68843;SDS011;55850;51.244;6.824;2022-08-01T16:19:28;2.40;;;1.90;;
68843;SDS011;55850;51.244;6.824;2022-08-01T16:24:33;4.17;;;1.73;;
68843;SDS011;55850;51.244;6.824;2022-08-01T16:29:41;3.60;;;1.83;;
68843;SDS011;55850;51.244;6.824;2022-08-01T16:34:47;2.35;;;1.85;;
68843;SDS011;55850;51.244;6.824;2022-08-01T16:39:52;3.10;;;1.80;;
68843;SDS011;55850;51.244;6.824;2022-08-01T16:45:00;5.23;;;2.00;;
68843;SDS011;55850;51.244;6.824;2022-08-01T16:50:14;3.28;;;2.08;;
68843;SDS011;55850;51.244;6.824;2022-08-01T16:55:29;2.35;;;1.45;;
68843;SDS011;55850;51.244;6.824;2022-08-01T17:00:57;2.90;;;1.17;;
68843;SDS011;55850;51.244;6.824;2022-08-01T17:06:22;2.38;;;1.17;;
68843;SDS011;55850;51.244;6.824;2022-08-01T17:11:28;1.73;;;1.00;;
68843;SDS011;55850;51.244;6.824;2022-08-01T17:16:36;3.97;;;1.47;;
68843;SDS011;55850;51.244;6.824;2022-08-01T17:21:42;3.20;;;1.30;;
68843;SDS011;55850;51.244;6.824;2022-08-01T17:26:47;3.95;;;1.20;;
68843;SDS011;55850;51.244;6.824;2022-08-01T17:31:55;2.28;;;1.30;;
68843;SDS011;55850;51.244;6.824;2022-08-01T17:37:01;1.93;;;1.20;;
68843;SDS011;55850;51.244;6.824;2022-08-01T17:42:07;1.35;;;1.10;;
68843;SDS011;55850;51.244;6.824;2022-08-01T17:47:16;2.75;;;1.30;;
68843;SDS011;55850;51.244;6.824;2022-08-01T17:52:43;2.37;;;1.40;;
68843;SDS011;55850;51.244;6.824;2022-08-01T17:57:49;2.58;;;1.13;;
68843;SDS011;55850;51.244;6.824;2022-08-01T18:02:57;2.28;;;1.45;;
68843;SDS011;55850;51.244;6.824;2022-08-01T18:08:08;3.70;;;1.50;;
68843;SDS011;55850;51.244;6.824;2022-08-01T18:13:19;2.50;;;1.40;;
68843;SDS011;55850;51.244;6.824;2022-08-01T18:18:29;2.55;;;1.23;;
68843;SDS011;55850;51.244;6.824;2022-08-01T18:23:35;5.70;;;1.60;;
68843;SDS011;55850;51.244;6.824;2022-08-01T18:28:44;5.13;;;1.33;;
68843;SDS011;55850;51.244;6.824;2022-08-01T18:33:52;3.70;;;1.17;;
68843;SDS011;55850;51.244;6.824;2022-08-01T18:39:01;2.83;;;1.40;;
68843;SDS011;55850;51.244;6.824;2022-08-01T18:44:11;3.63;;;1.40;;
68843;SDS011;55850;51.244;6.824;2022-08-01T18:49:21;7.10;;;1.58;;
68843;SDS011;55850;51.244;6.824;2022-08-01T18:54:27;2.15;;;1.30;;
68843;SDS011;55850;51.244;6.824;2022-08-01T18:59:33;4.03;;;1.40;;
68843;SDS011;55850;51.244;6.824;2022-08-01T19:04:43;2.40;;;1.20;;
68843;SDS011;55850;51.244;6.824;2022-08-01T19:09:48;2.30;;;1.30;;
68843;SDS011;55850;51.244;6.824;2022-08-01T19:14:54;2.65;;;1.45;;
68843;SDS011;55850;51.244;6.824;2022-08-01T19:20:09;3.00;;;1.30;;
68843;SDS011;55850;51.244;6.824;2022-08-01T19:25:14;3.00;;;1.10;;
68843;SDS011;55850;51.244;6.824;2022-08-01T19:30:20;1.92;;;1.10;;
68843;SDS011;55850;51.244;6.824;2022-08-01T19:35:29;2.47;;;1.47;;
68843;SDS011;55850;51.244;6.824;2022-08-01T19:40:36;4.50;;;1.38;;
68843;SDS011;55850;51.244;6.824;2022-08-01T19:45:42;2.83;;;1.60;;
68843;SDS011;55850;51.244;6.824;2022-08-01T19:50:52;2.33;;;1.50;;
68843;SDS011;55850;51.244;6.824;2022-08-01T19:55:58;9.87;;;1.70;;
68843;SDS011;55850;51.244;6.824;2022-08-01T20:01:05;2.80;;;1.50;;
68843;SDS011;55850;51.244;6.824;2022-08-01T20:06:16;3.38;;;1.40;;
68843;SDS011;55850;51.244;6.824;2022-08-01T20:11:25;2.13;;;1.13;;
68843;SDS011;55850;51.244;6.824;2022-08-01T20:16:31;3.58;;;1.63;;
68843;SDS011;55850;51.244;6.824;2022-08-01T20:21:39;2.00;;;1.30;;
68843;SDS011;55850;51.244;6.824;2022-08-01T20:27:05;1.90;;;1.30;;
68843;SDS011;55850;51.244;6.824;2022-08-01T20:32:11;2.55;;;1.60;;
68843;SDS011;55850;51.244;6.824;2022-08-01T20:37:21;3.08;;;1.52;;
68843;SDS011;55850;51.244;6.824;2022-08-01T20:42:46;4.40;;;1.50;;
68843;SDS011;55850;51.244;6.824;2022-08-01T20:47:52;2.07;;;1.70;;
68843;SDS011;55850;51.244;6.824;2022-08-01T20:53:03;2.08;;;1.50;;
68843;SDS011;55850;51.244;6.824;2022-08-01T20:58:09;3.60;;;1.50;;
68843;SDS011;55850;51.244;6.824;2022-08-01T21:03:16;7.27;;;1.70;;
68843;SDS011;55850;51.244;6.824;2022-08-01T21:08:30;2.45;;;1.38;;
68843;SDS011;55850;51.244;6.824;2022-08-01T21:13:43;2.88;;;1.73;;
68843;SDS011;55850;51.244;6.824;2022-08-01T21:18:53;3.07;;;1.47;;
68843;SDS011;55850;51.244;6.824;2022-08-01T21:24:22;1.88;;;1.50;;
68843;SDS011;55850;51.244;6.824;2022-08-01T21:29:32;4.93;;;1.70;;
68843;SDS011;55850;51.244;6.824;2022-08-01T21:34:39;2.97;;;1.77;;
68843;SDS011;55850;51.244;6.824;2022-08-01T21:39:51;4.37;;;2.10;;
68843;SDS011;55850;51.244;6.824;2022-08-01T21:44:58;2.97;;;1.60;;
68843;SDS011;55850;51.244;6.824;2022-08-01T21:50:06;2.67;;;1.55;;
68843;SDS011;55850;51.244;6.824;2022-08-01T21:55:20;2.63;;;1.90;;
68843;SDS011;55850;51.244;6.824;2022-08-01T22:00:37;4.05;;;1.60;;
68843;SDS011;55850;51.244;6.824;2022-08-01T22:05:44;6.18;;;1.98;;
68843;SDS011;55850;51.244;6.824;2022-08-01T22:11:03;3.57;;;1.70;;
68843;SDS011;55850;51.244;6.824;2022-08-01T22:16:11;4.10;;;1.70;;
68843;SDS011;55850;51.244;6.824;2022-08-01T22:21:24;5.40;;;2.10;;
68843;SDS011;55850;51.244;6.824;2022-08-01T22:26:34;3.00;;;1.70;;
68843;SDS011;55850;51.244;6.824;2022-08-01T22:31:44;3.47;;;1.67;;
68843;SDS011;55850;51.244;6.824;2022-08-01T22:36:51;3.92;;;1.80;;
68843;SDS011;55850;51.244;6.824;2022-08-01T22:41:59;3.70;;;1.80;;
68843;SDS011;55850;51.244;6.824;2022-08-01T22:47:09;5.63;;;1.90;;
68843;SDS011;55850;51.244;6.824;2022-08-01T22:52:23;2.38;;;1.63;;
68843;SDS011;55850;51.244;6.824;2022-08-01T22:57:36;2.50;;;1.67;;
68843;SDS011;55850;51.244;6.824;2022-08-01T23:02:51;2.80;;;1.70;;
68843;SDS011;55850;51.244;6.824;2022-08-01T23:08:02;4.72;;;1.70;;
68843;SDS011;55850;51.244;6.824;2022-08-01T23:13:18;4.25;;;2.08;;
68843;SDS011;55850;51.244;6.824;2022-08-01T23:18:24;2.87;;;1.73;;
68843;SDS011;55850;51.244;6.824;2022-08-01T23:23:30;2.90;;;1.90;;
68843;SDS011;55850;51.244;6.824;2022-08-01T23:28:40;3.80;;;1.55;;
68843;SDS011;55850;51.244;6.824;2022-08-01T23:33:46;3.33;;;1.60;;
68843;SDS011;55850;51.244;6.824;2022-08-01T23:39:03;3.80;;;2.03;;
68843;SDS011;55850;51.244;6.824;2022-08-01T23:44:11;3.50;;;1.77;;
68843;SDS011;55850;51.244;6.824;2022-08-01T23:49:17;4.32;;;2.03;;
68843;SDS011;55850;51.244;6.824;2022-08-01T23:54:27;3.13;;;1.53;;
68843;SDS011;55850;51.244;6.824;2022-08-01T23:59:36;4.75;;;1.98;;
